sensor_id;sensor_type;location;lat;lon;timestamp;pressure;altitude;pressure_sealevel;temperature;humidity
58064;BME280;43851;55.856;37.186;2022-08-06T00:00:23;99877.91;;;18.32;88.78
58064;BME280;43851;55.856;37.186;2022-08-06T00:02:48;99885.72;;;18.34;88.85
58064;BME280;43851;55.856;37.186;2022-08-06T00:05:14;99888.97;;;18.36;89.07
58064;BME280;43851;55.856;37.186;2022-08-06T00:07:40;99872.50;;;18.15;90.78
58064;BME280;43851;55.856;37.186;2022-08-06T00:10:06;99892.78;;;18.23;89.29
58064;BME280;43851;55.856;37.186;2022-08-06T00:12:33;99887.31;;;18.18;90.19
58064;BME280;43851;55.856;37.186;2022-08-06T00:15:01;99883.13;;;18.22;90.22
58064;BME280;43851;55.856;37.186;2022-08-06T00:17:29;99889.06;;;18.24;89.55
58064;BME280;43851;55.856;37.186;2022-08-06T00:19:55;99879.84;;;18.20;89.74
58064;BME280;43851;55.856;37.186;2022-08-06T00:22:21;99883.97;;;18.11;91.27
58064;BME280;43851;55.856;37.186;2022-08-06T00:24:47;99886.56;;;18.06;91.64
58064;BME280;43851;55.856;37.186;2022-08-06T00:27:13;99893.50;;;18.18;90.74
58064;BME280;43851;55.856;37.186;2022-08-06T00:29:38;99891.53;;;18.14;90.76
58064;BME280;43851;55.856;37.186;2022-08-06T00:32:04;99902.09;;;18.03;91.31
58064;BME280;43851;55.856;37.186;2022-08-06T00:34:30;99901.16;;;17.98;91.69
58064;BME280;43851;55.856;37.186;2022-08-06T00:36:56;99898.34;;;18.04;91.22
58064;BME280;43851;55.856;37.186;2022-08-06T00:39:22;99887.97;;;18.08;90.97
58064;BME280;43851;55.856;37.186;2022-08-06T00:41:48;99893.72;;;18.17;90.17
58064;BME280;43851;55.856;37.186;2022-08-06T00:44:14;99886.75;;;18.16;90.43
58064;BME280;43851;55.856;37.186;2022-08-06T00:46:40;99883.00;;;18.17;90.44
58064;BME280;43851;55.856;37.186;2022-08-06T00:49:06;99888.38;;;18.17;89.97
58064;BME280;43851;55.856;37.186;2022-08-06T00:51:32;99884.41;;;18.19;89.76
58064;BME280;43851;55.856;37.186;2022-08-06T00:54:00;99898.06;;;18.18;89.71
58064;BME280;43851;55.856;37.186;2022-08-06T00:56:26;99880.22;;;18.12;89.50
58064;BME280;43851;55.856;37.186;2022-08-06T00:58:52;99883.25;;;18.15;89.50
58064;BME280;43851;55.856;37.186;2022-08-06T01:01:18;99876.06;;;18.04;90.13
58064;BME280;43851;55.856;37.186;2022-08-06T01:03:45;99889.94;;;18.01;90.47
58064;BME280;43851;55.856;37.186;2022-08-06T01:06:11;99883.53;;;18.02;90.16
58064;BME280;43851;55.856;37.186;2022-08-06T01:08:37;99886.38;;;17.95;90.53
58064;BME280;43851;55.856;37.186;2022-08-06T01:11:03;99886.22;;;18.02;90.37
58064;BME280;43851;55.856;37.186;2022-08-06T01:13:28;99889.25;;;18.06;89.92
58064;BME280;43851;55.856;37.186;2022-08-06T01:16:03;99884.13;;;18.04;90.15
58064;BME280;43851;55.856;37.186;2022-08-06T01:18:38;99882.38;;;17.98;89.98
58064;BME280;43851;55.856;37.186;2022-08-06T01:21:13;99889.31;;;18.11;89.05
58064;BME280;43851;55.856;37.186;2022-08-06T01:29:17;99879.78;;;18.03;89.70
58064;BME280;43851;55.856;37.186;2022-08-06T01:32:00;99890.78;;;18.01;89.75
58064;BME280;43851;55.856;37.186;2022-08-06T01:34:31;99886.94;;;17.97;90.15
58064;BME280;43851;55.856;37.186;2022-08-06T01:37:13;99893.03;;;17.93;91.13
58064;BME280;43851;55.856;37.186;2022-08-06T01:39:42;99888.22;;;17.95;89.97
58064;BME280;43851;55.856;37.186;2022-08-06T01:42:11;99893.72;;;17.88;91.24
58064;BME280;43851;55.856;37.186;2022-08-06T01:44:40;99890.34;;;17.81;91.26
58064;BME280;43851;55.856;37.186;2022-08-06T01:47:15;99894.97;;;17.85;91.35
58064;BME280;43851;55.856;37.186;2022-08-06T01:49:51;99894.97;;;17.85;91.10
58064;BME280;43851;55.856;37.186;2022-08-06T01:52:19;99896.88;;;17.85;90.92
58064;BME280;43851;55.856;37.186;2022-08-06T01:54:49;99896.63;;;17.86;91.20
58064;BME280;43851;55.856;37.186;2022-08-06T01:57:17;99897.56;;;17.80;91.53
58064;BME280;43851;55.856;37.186;2022-08-06T01:59:47;99893.72;;;17.88;91.16
58064;BME280;43851;55.856;37.186;2022-08-06T02:02:20;99889.53;;;17.92;90.85
58064;BME280;43851;55.856;37.186;2022-08-06T02:04:50;99897.22;;;17.89;91.13
58064;BME280;43851;55.856;37.186;2022-08-06T02:07:17;99895.94;;;17.91;91.01
58064;BME280;43851;55.856;37.186;2022-08-06T02:09:45;99908.03;;;18.06;90.09
58064;BME280;43851;55.856;37.186;2022-08-06T02:12:14;99901.69;;;18.12;90.01
58064;BME280;43851;55.856;37.186;2022-08-06T02:14:50;99903.50;;;18.23;90.20
58064;BME280;43851;55.856;37.186;2022-08-06T02:17:20;99908.53;;;18.48;88.37
58064;BME280;43851;55.856;37.186;2022-08-06T02:19:50;99902.53;;;18.75;87.19
58064;BME280;43851;55.856;37.186;2022-08-06T02:22:19;99900.25;;;18.84;86.53
58064;BME280;43851;55.856;37.186;2022-08-06T02:24:47;99909.28;;;19.28;84.30
58064;BME280;43851;55.856;37.186;2022-08-06T02:27:14;99896.97;;;19.33;83.34
58064;BME280;43851;55.856;37.186;2022-08-06T02:29:44;99915.38;;;19.63;82.08
58064;BME280;43851;55.856;37.186;2022-08-06T02:32:10;99909.47;;;20.05;80.31
58064;BME280;43851;55.856;37.186;2022-08-06T02:34:38;99901.56;;;20.21;79.26
58064;BME280;43851;55.856;37.186;2022-08-06T02:37:15;99911.50;;;20.47;77.52
58064;BME280;43851;55.856;37.186;2022-08-06T02:39:52;99916.13;;;20.79;75.74
58064;BME280;43851;55.856;37.186;2022-08-06T02:45:19;99912.75;;;21.37;73.06
58064;BME280;43851;55.856;37.186;2022-08-06T02:48:26;99906.50;;;21.31;72.92
58064;BME280;43851;55.856;37.186;2022-08-06T02:50:55;99916.72;;;21.77;71.65
58064;BME280;43851;55.856;37.186;2022-08-06T02:53:34;99892.44;;;21.77;70.95
58064;BME280;43851;55.856;37.186;2022-08-06T02:56:13;99913.09;;;22.14;69.59
58064;BME280;43851;55.856;37.186;2022-08-06T02:58:42;99924.25;;;22.53;68.54
58064;BME280;43851;55.856;37.186;2022-08-06T03:01:12;99917.50;;;22.97;66.94
58064;BME280;43851;55.856;37.186;2022-08-06T03:03:42;99919.66;;;23.26;65.57
58064;BME280;43851;55.856;37.186;2022-08-06T03:06:11;99910.63;;;23.62;64.08
58064;BME280;43851;55.856;37.186;2022-08-06T03:08:38;99899.47;;;23.78;63.06
58064;BME280;43851;55.856;37.186;2022-08-06T03:11:05;99909.22;;;24.29;62.22
58064;BME280;43851;55.856;37.186;2022-08-06T03:13:33;99904.03;;;24.38;60.89
58064;BME280;43851;55.856;37.186;2022-08-06T03:16:00;99896.06;;;24.52;60.82
58064;BME280;43851;55.856;37.186;2022-08-06T03:18:28;99903.06;;;24.93;58.83
58064;BME280;43851;55.856;37.186;2022-08-06T03:20:55;99907.59;;;25.32;58.13
58064;BME280;43851;55.856;37.186;2022-08-06T03:23:21;99913.16;;;25.46;57.35
58064;BME280;43851;55.856;37.186;2022-08-06T03:25:48;99905.81;;;25.70;56.76
58064;BME280;43851;55.856;37.186;2022-08-06T03:28:15;99911.63;;;25.58;56.60
58064;BME280;43851;55.856;37.186;2022-08-06T03:30:43;99908.28;;;26.10;55.00
58064;BME280;43851;55.856;37.186;2022-08-06T03:33:13;99903.53;;;25.97;55.29
58064;BME280;43851;55.856;37.186;2022-08-06T03:35:39;99911.78;;;26.48;54.05
58064;BME280;43851;55.856;37.186;2022-08-06T03:38:08;99913.59;;;27.05;53.38
58064;BME280;43851;55.856;37.186;2022-08-06T03:40:36;99914.31;;;27.11;53.71
58064;BME280;43851;55.856;37.186;2022-08-06T03:43:02;99917.22;;;26.48;53.88
58064;BME280;43851;55.856;37.186;2022-08-06T03:45:30;99913.78;;;26.95;53.47
58064;BME280;43851;55.856;37.186;2022-08-06T03:47:59;99922.88;;;27.18;53.05
58064;BME280;43851;55.856;37.186;2022-08-06T03:50:34;99911.75;;;27.61;51.65
58064;BME280;43851;55.856;37.186;2022-08-06T03:53:05;99918.09;;;27.84;50.79
58064;BME280;43851;55.856;37.186;2022-08-06T03:55:34;99919.53;;;28.55;49.68
58064;BME280;43851;55.856;37.186;2022-08-06T03:58:07;99921.69;;;28.89;48.29
58064;BME280;43851;55.856;37.186;2022-08-06T04:00:45;99916.97;;;28.81;48.32
58064;BME280;43851;55.856;37.186;2022-08-06T04:03:13;99921.97;;;28.88;48.43
58064;BME280;43851;55.856;37.186;2022-08-06T04:05:41;99919.72;;;29.12;48.15
58064;BME280;43851;55.856;37.186;2022-08-06T04:08:09;99920.53;;;30.19;47.53
58064;BME280;43851;55.856;37.186;2022-08-06T04:10:46;99924.53;;;30.74;45.72
58064;BME280;43851;55.856;37.186;2022-08-06T04:13:16;99921.78;;;30.83;45.09
58064;BME280;43851;55.856;37.186;2022-08-06T04:15:43;99918.78;;;30.67;44.90
58064;BME280;43851;55.856;37.186;2022-08-06T04:18:15;99932.34;;;31.11;44.02
58064;BME280;43851;55.856;37.186;2022-08-06T04:20:51;99934.97;;;31.46;42.93
58064;BME280;43851;55.856;37.186;2022-08-06T04:23:17;99917.94;;;31.91;42.59
58064;BME280;43851;55.856;37.186;2022-08-06T04:25:55;99923.16;;;32.14;40.74
58064;BME280;43851;55.856;37.186;2022-08-06T04:28:24;99912.06;;;32.65;40.84
58064;BME280;43851;55.856;37.186;2022-08-06T04:30:52;99925.97;;;32.26;40.49
58064;BME280;43851;55.856;37.186;2022-08-06T04:33:23;99926.53;;;32.53;40.29
58064;BME280;43851;55.856;37.186;2022-08-06T04:35:50;99926.88;;;32.30;41.09
58064;BME280;43851;55.856;37.186;2022-08-06T04:38:17;99921.22;;;32.48;40.36
58064;BME280;43851;55.856;37.186;2022-08-06T04:40:44;99913.81;;;32.69;40.46
58064;BME280;43851;55.856;37.186;2022-08-06T04:43:11;99923.31;;;32.72;39.88
58064;BME280;43851;55.856;37.186;2022-08-06T04:45:39;99927.34;;;32.87;39.95
58064;BME280;43851;55.856;37.186;2022-08-06T04:48:08;99922.97;;;33.19;38.40
58064;BME280;43851;55.856;37.186;2022-08-06T04:50:36;99922.78;;;32.58;40.28
58064;BME280;43851;55.856;37.186;2022-08-06T04:53:06;99924.53;;;33.08;39.09
58064;BME280;43851;55.856;37.186;2022-08-06T04:55:33;99922.06;;;33.65;37.98
58064;BME280;43851;55.856;37.186;2022-08-06T04:58:03;99902.47;;;33.29;38.72
58064;BME280;43851;55.856;37.186;2022-08-06T05:00:31;99916.31;;;33.70;38.41
58064;BME280;43851;55.856;37.186;2022-08-06T05:02:58;99919.41;;;33.31;38.97
58064;BME280;43851;55.856;37.186;2022-08-06T05:05:29;99915.63;;;33.97;37.63
58064;BME280;43851;55.856;37.186;2022-08-06T05:07:57;99903.16;;;33.63;38.35
58064;BME280;43851;55.856;37.186;2022-08-06T05:10:30;99911.84;;;33.40;38.89
58064;BME280;43851;55.856;37.186;2022-08-06T05:12:57;99898.31;;;32.98;40.10
58064;BME280;43851;55.856;37.186;2022-08-06T05:15:29;99905.44;;;32.66;40.72
58064;BME280;43851;55.856;37.186;2022-08-06T05:18:08;99911.78;;;32.91;41.04
58064;BME280;43851;55.856;37.186;2022-08-06T05:20:38;99909.44;;;33.63;38.77
58064;BME280;43851;55.856;37.186;2022-08-06T05:23:20;99885.63;;;33.68;38.98
58064;BME280;43851;55.856;37.186;2022-08-06T05:25:49;99887.94;;;33.41;39.20
58064;BME280;43851;55.856;37.186;2022-08-06T05:28:16;99896.41;;;33.73;39.24
58064;BME280;43851;55.856;37.186;2022-08-06T05:30:45;99899.50;;;33.71;38.25
58064;BME280;43851;55.856;37.186;2022-08-06T05:33:22;99894.81;;;33.22;38.89
58064;BME280;43851;55.856;37.186;2022-08-06T05:35:50;99901.19;;;33.14;39.01
58064;BME280;43851;55.856;37.186;2022-08-06T05:38:19;99894.66;;;33.06;39.83
58064;BME280;43851;55.856;37.186;2022-08-06T05:40:48;99901.53;;;33.13;39.64
58064;BME280;43851;55.856;37.186;2022-08-06T05:43:15;99891.03;;;32.35;40.60
58064;BME280;43851;55.856;37.186;2022-08-06T05:45:44;99910.84;;;32.20;41.54
58064;BME280;43851;55.856;37.186;2022-08-06T05:48:13;99890.94;;;31.60;42.41
58064;BME280;43851;55.856;37.186;2022-08-06T05:50:47;99897.38;;;31.25;43.72
58064;BME280;43851;55.856;37.186;2022-08-06T05:53:47;99901.56;;;30.58;45.03
58064;BME280;43851;55.856;37.186;2022-08-06T05:56:18;99898.69;;;30.46;45.69
58064;BME280;43851;55.856;37.186;2022-08-06T05:58:53;99905.59;;;30.34;46.42
58064;BME280;43851;55.856;37.186;2022-08-06T06:01:20;99900.44;;;30.33;46.31
58064;BME280;43851;55.856;37.186;2022-08-06T06:03:47;99899.47;;;30.11;47.05
58064;BME280;43851;55.856;37.186;2022-08-06T06:06:14;99903.53;;;29.56;48.40
58064;BME280;43851;55.856;37.186;2022-08-06T06:08:40;99894.22;;;29.57;48.43
58064;BME280;43851;55.856;37.186;2022-08-06T06:11:08;99903.69;;;29.60;48.22
58064;BME280;43851;55.856;37.186;2022-08-06T06:13:35;99894.75;;;29.28;49.00
58064;BME280;43851;55.856;37.186;2022-08-06T06:21:38;99898.34;;;29.37;49.81
58064;BME280;43851;55.856;37.186;2022-08-06T06:26:48;99894.69;;;28.88;50.91
58064;BME280;43851;55.856;37.186;2022-08-06T06:29:20;99896.91;;;29.08;50.49
58064;BME280;43851;55.856;37.186;2022-08-06T06:37:37;99884.84;;;29.01;50.81
58064;BME280;43851;55.856;37.186;2022-08-06T06:43:15;99885.03;;;29.13;49.88
58064;BME280;43851;55.856;37.186;2022-08-06T06:45:51;99879.97;;;29.20;50.53
58064;BME280;43851;55.856;37.186;2022-08-06T06:48:23;99871.13;;;29.23;50.48
58064;BME280;43851;55.856;37.186;2022-08-06T06:50:54;99881.06;;;29.19;50.60
58064;BME280;43851;55.856;37.186;2022-08-06T06:53:25;99880.88;;;29.15;50.23
58064;BME280;43851;55.856;37.186;2022-08-06T06:55:55;99884.53;;;29.11;50.16
58064;BME280;43851;55.856;37.186;2022-08-06T06:58:24;99879.63;;;29.22;50.36
58064;BME280;43851;55.856;37.186;2022-08-06T07:00:53;99872.50;;;29.12;50.52
58064;BME280;43851;55.856;37.186;2022-08-06T07:03:22;99881.91;;;29.28;50.61
58064;BME280;43851;55.856;37.186;2022-08-06T07:05:49;99876.75;;;29.27;50.28
58064;BME280;43851;55.856;37.186;2022-08-06T07:08:18;99870.22;;;29.37;50.32
58064;BME280;43851;55.856;37.186;2022-08-06T07:10:45;99868.81;;;29.48;49.73
58064;BME280;43851;55.856;37.186;2022-08-06T07:13:12;99879.25;;;29.55;49.67
58064;BME280;43851;55.856;37.186;2022-08-06T07:15:40;99874.13;;;29.53;49.72
58064;BME280;43851;55.856;37.186;2022-08-06T07:18:07;99859.34;;;29.54;49.79
58064;BME280;43851;55.856;37.186;2022-08-06T07:20:33;99878.50;;;29.72;48.92
58064;BME280;43851;55.856;37.186;2022-08-06T07:23:06;99874.47;;;29.69;48.39
58064;BME280;43851;55.856;37.186;2022-08-06T07:25:39;99873.66;;;29.77;48.75
58064;BME280;43851;55.856;37.186;2022-08-06T07:28:07;99879.13;;;29.77;48.45
58064;BME280;43851;55.856;37.186;2022-08-06T07:30:35;99873.25;;;29.84;48.43
58064;BME280;43851;55.856;37.186;2022-08-06T07:33:02;99870.47;;;29.75;48.74
58064;BME280;43851;55.856;37.186;2022-08-06T07:35:29;99874.31;;;29.74;48.05
58064;BME280;43851;55.856;37.186;2022-08-06T07:38:02;99876.88;;;29.70;48.76
58064;BME280;43851;55.856;37.186;2022-08-06T07:40:42;99866.28;;;29.78;47.91
58064;BME280;43851;55.856;37.186;2022-08-06T07:43:21;99860.84;;;29.86;47.92
58064;BME280;43851;55.856;37.186;2022-08-06T07:45:50;99868.75;;;29.97;47.74
58064;BME280;43851;55.856;37.186;2022-08-06T07:48:20;99876.47;;;30.03;46.96
58064;BME280;43851;55.856;37.186;2022-08-06T07:50:49;99863.44;;;29.83;47.60
58064;BME280;43851;55.856;37.186;2022-08-06T07:53:17;99866.50;;;29.90;47.80
58064;BME280;43851;55.856;37.186;2022-08-06T07:55:45;99870.34;;;29.98;47.44
58064;BME280;43851;55.856;37.186;2022-08-06T07:58:13;99854.25;;;30.05;47.95
58064;BME280;43851;55.856;37.186;2022-08-06T08:00:40;99857.66;;;30.11;47.76
58064;BME280;43851;55.856;37.186;2022-08-06T08:03:09;99860.84;;;30.30;46.83
58064;BME280;43851;55.856;37.186;2022-08-06T08:05:55;99862.78;;;30.30;47.38
58064;BME280;43851;55.856;37.186;2022-08-06T08:08:40;99866.00;;;30.49;46.57
58064;BME280;43851;55.856;37.186;2022-08-06T08:11:07;99861.50;;;30.45;45.81
58064;BME280;43851;55.856;37.186;2022-08-06T08:13:36;99867.44;;;30.55;46.36
58064;BME280;43851;55.856;37.186;2022-08-06T08:16:03;99859.25;;;30.47;45.78
58064;BME280;43851;55.856;37.186;2022-08-06T08:18:31;99853.44;;;30.57;45.24
58064;BME280;43851;55.856;37.186;2022-08-06T08:21:01;99868.09;;;30.52;45.63
58064;BME280;43851;55.856;37.186;2022-08-06T08:23:29;99858.66;;;30.80;44.82
58064;BME280;43851;55.856;37.186;2022-08-06T08:25:59;99855.44;;;30.86;44.71
58064;BME280;43851;55.856;37.186;2022-08-06T08:28:25;99863.63;;;30.95;44.19
58064;BME280;43851;55.856;37.186;2022-08-06T08:30:51;99857.63;;;31.10;43.81
58064;BME280;43851;55.856;37.186;2022-08-06T08:33:19;99859.19;;;31.20;43.52
58064;BME280;43851;55.856;37.186;2022-08-06T08:35:46;99860.25;;;31.37;42.96
58064;BME280;43851;55.856;37.186;2022-08-06T08:38:12;99853.78;;;31.41;42.86
58064;BME280;43851;55.856;37.186;2022-08-06T08:40:38;99853.00;;;31.02;42.90
58064;BME280;43851;55.856;37.186;2022-08-06T08:43:05;99858.31;;;30.90;43.70
58064;BME280;43851;55.856;37.186;2022-08-06T08:45:33;99863.50;;;30.83;44.22
58064;BME280;43851;55.856;37.186;2022-08-06T08:48:01;99849.78;;;31.00;44.20
58064;BME280;43851;55.856;37.186;2022-08-06T08:50:28;99858.75;;;31.39;43.41
58064;BME280;43851;55.856;37.186;2022-08-06T08:53:00;99852.56;;;31.30;42.89
58064;BME280;43851;55.856;37.186;2022-08-06T08:55:27;99843.91;;;31.19;42.62
58064;BME280;43851;55.856;37.186;2022-08-06T08:57:54;99848.28;;;31.11;43.05
58064;BME280;43851;55.856;37.186;2022-08-06T09:00:21;99832.44;;;31.47;42.66
58064;BME280;43851;55.856;37.186;2022-08-06T09:02:48;99832.97;;;31.91;41.32
58064;BME280;43851;55.856;37.186;2022-08-06T09:05:14;99814.31;;;31.63;41.51
58064;BME280;43851;55.856;37.186;2022-08-06T09:07:40;99833.75;;;31.71;41.54
58064;BME280;43851;55.856;37.186;2022-08-06T09:10:08;99838.72;;;31.77;40.46
58064;BME280;43851;55.856;37.186;2022-08-06T09:12:36;99839.41;;;31.74;40.83
58064;BME280;43851;55.856;37.186;2022-08-06T09:15:02;99830.63;;;31.60;41.23
58064;BME280;43851;55.856;37.186;2022-08-06T09:17:30;99836.97;;;31.94;39.84
58064;BME280;43851;55.856;37.186;2022-08-06T09:20:03;99830.91;;;32.09;39.70
58064;BME280;43851;55.856;37.186;2022-08-06T09:22:29;99829.38;;;32.33;39.74
58064;BME280;43851;55.856;37.186;2022-08-06T09:24:56;99825.31;;;32.18;39.64
58064;BME280;43851;55.856;37.186;2022-08-06T09:27:22;99787.03;;;31.67;40.15
58064;BME280;43851;55.856;37.186;2022-08-06T09:29:56;99835.00;;;31.82;39.68
58064;BME280;43851;55.856;37.186;2022-08-06T09:32:41;99835.31;;;31.59;40.25
58064;BME280;43851;55.856;37.186;2022-08-06T09:35:34;99829.16;;;31.62;40.50
58064;BME280;43851;55.856;37.186;2022-08-06T09:38:05;99834.97;;;32.03;39.29
58064;BME280;43851;55.856;37.186;2022-08-06T09:40:31;99817.06;;;31.84;38.66
58064;BME280;43851;55.856;37.186;2022-08-06T09:42:58;99824.66;;;31.58;39.90
58064;BME280;43851;55.856;37.186;2022-08-06T09:45:27;99809.84;;;31.29;40.58
58064;BME280;43851;55.856;37.186;2022-08-06T09:48:03;99827.75;;;31.26;40.81
58064;BME280;43851;55.856;37.186;2022-08-06T09:50:41;99819.75;;;31.12;40.47
58064;BME280;43851;55.856;37.186;2022-08-06T09:53:08;99813.28;;;31.17;40.57
58064;BME280;43851;55.856;37.186;2022-08-06T09:55:35;99815.66;;;31.27;40.16
58064;BME280;43851;55.856;37.186;2022-08-06T09:58:01;99810.34;;;31.52;39.62
58064;BME280;43851;55.856;37.186;2022-08-06T10:00:33;99811.34;;;31.47;39.67
58064;BME280;43851;55.856;37.186;2022-08-06T10:03:04;99810.22;;;31.19;40.13
58064;BME280;43851;55.856;37.186;2022-08-06T10:05:31;99796.19;;;31.20;39.45
58064;BME280;43851;55.856;37.186;2022-08-06T10:08:16;99798.00;;;31.67;38.96
58064;BME280;43851;55.856;37.186;2022-08-06T10:13:27;99810.63;;;31.59;38.21
58064;BME280;43851;55.856;37.186;2022-08-06T10:15:54;99794.13;;;31.89;38.36
58064;BME280;43851;55.856;37.186;2022-08-06T10:18:33;99790.16;;;31.99;38.02
58064;BME280;43851;55.856;37.186;2022-08-06T10:21:09;99794.06;;;32.31;37.47
58064;BME280;43851;55.856;37.186;2022-08-06T10:23:37;99795.22;;;32.43;38.09
58064;BME280;43851;55.856;37.186;2022-08-06T10:26:08;99798.69;;;32.52;36.79
58064;BME280;43851;55.856;37.186;2022-08-06T10:28:35;99789.50;;;32.35;37.18
58064;BME280;43851;55.856;37.186;2022-08-06T10:31:08;99761.09;;;32.19;37.14
58064;BME280;43851;55.856;37.186;2022-08-06T10:33:50;99780.03;;;32.45;37.13
58064;BME280;43851;55.856;37.186;2022-08-06T10:38:34;99787.25;;;32.16;37.67
58064;BME280;43851;55.856;37.186;2022-08-06T10:41:09;99777.69;;;32.10;37.34
58064;BME280;43851;55.856;37.186;2022-08-06T10:43:38;99781.59;;;32.22;37.69
58064;BME280;43851;55.856;37.186;2022-08-06T10:46:06;99776.66;;;32.15;37.95
58064;BME280;43851;55.856;37.186;2022-08-06T10:48:37;99777.69;;;32.10;37.59
58064;BME280;43851;55.856;37.186;2022-08-06T10:51:09;99763.16;;;31.89;37.93
58064;BME280;43851;55.856;37.186;2022-08-06T10:53:37;99763.50;;;31.87;38.28
58064;BME280;43851;55.856;37.186;2022-08-06T10:56:05;99764.34;;;32.00;38.01
58064;BME280;43851;55.856;37.186;2022-08-06T10:58:33;99758.22;;;31.82;38.38
58064;BME280;43851;55.856;37.186;2022-08-06T11:01:02;99761.09;;;31.86;38.06
58064;BME280;43851;55.856;37.186;2022-08-06T11:04:11;99753.09;;;31.80;37.56
58064;BME280;43851;55.856;37.186;2022-08-06T11:09:42;99761.22;;;32.23;37.38
58064;BME280;43851;55.856;37.186;2022-08-06T11:12:23;99763.16;;;31.89;38.04
58064;BME280;43851;55.856;37.186;2022-08-06T11:14:52;99747.63;;;31.93;38.28
58064;BME280;43851;55.856;37.186;2022-08-06T11:17:18;99743.47;;;32.08;38.27
58064;BME280;43851;55.856;37.186;2022-08-06T11:19:47;99742.03;;;32.10;38.01
58064;BME280;43851;55.856;37.186;2022-08-06T11:22:51;99739.72;;;32.12;37.80
58064;BME280;43851;55.856;37.186;2022-08-06T11:25:17;99745.38;;;32.28;37.36
58064;BME280;43851;55.856;37.186;2022-08-06T11:27:55;99740.34;;;32.43;36.79
58064;BME280;43851;55.856;37.186;2022-08-06T11:33:02;99729.59;;;32.25;36.95
58064;BME280;43851;55.856;37.186;2022-08-06T11:38:04;99725.59;;;32.35;37.04
58064;BME280;43851;55.856;37.186;2022-08-06T11:41:01;99728.66;;;32.09;36.67
58064;BME280;43851;55.856;37.186;2022-08-06T11:44:03;99723.00;;;32.05;37.24
58064;BME280;43851;55.856;37.186;2022-08-06T11:46:37;99723.06;;;32.17;37.15
58064;BME280;43851;55.856;37.186;2022-08-06T11:51:47;99711.19;;;31.92;36.69
58064;BME280;43851;55.856;37.186;2022-08-06T11:54:20;99706.84;;;31.91;37.27
58064;BME280;43851;55.856;37.186;2022-08-06T12:02:11;99706.84;;;31.58;38.07
58064;BME280;43851;55.856;37.186;2022-08-06T12:04:40;99704.59;;;31.60;38.54
58064;BME280;43851;55.856;37.186;2022-08-06T12:07:27;99701.97;;;31.63;38.34
58064;BME280;43851;55.856;37.186;2022-08-06T12:15:03;99687.66;;;32.37;36.94
58064;BME280;43851;55.856;37.186;2022-08-06T12:20:39;99678.72;;;32.28;36.94
58064;BME280;43851;55.856;37.186;2022-08-06T12:23:14;99697.81;;;32.12;36.87
58064;BME280;43851;55.856;37.186;2022-08-06T12:25:43;99683.75;;;32.13;36.46
58064;BME280;43851;55.856;37.186;2022-08-06T12:28:12;99674.16;;;32.32;36.78
58064;BME280;43851;55.856;37.186;2022-08-06T12:30:46;99679.28;;;32.21;37.32
58064;BME280;43851;55.856;37.186;2022-08-06T12:33:13;99678.94;;;32.23;37.37
58064;BME280;43851;55.856;37.186;2022-08-06T12:35:53;99679.94;;;32.18;37.06
58064;BME280;43851;55.856;37.186;2022-08-06T12:38:20;99678.31;;;32.05;37.14
58064;BME280;43851;55.856;37.186;2022-08-06T12:40:57;99670.38;;;32.24;37.04
58064;BME280;43851;55.856;37.186;2022-08-06T12:43:25;99671.28;;;32.28;36.14
58064;BME280;43851;55.856;37.186;2022-08-06T12:45:59;99671.19;;;32.37;35.83
58064;BME280;43851;55.856;37.186;2022-08-06T12:48:25;99660.25;;;32.03;36.99
58064;BME280;43851;55.856;37.186;2022-08-06T12:51:05;99677.53;;;32.04;36.03
58064;BME280;43851;55.856;37.186;2022-08-06T12:53:32;99677.28;;;31.97;36.30
58064;BME280;43851;55.856;37.186;2022-08-06T12:55:58;99671.00;;;31.96;36.57
58064;BME280;43851;55.856;37.186;2022-08-06T12:58:43;99658.44;;;32.08;36.09
58064;BME280;43851;55.856;37.186;2022-08-06T13:01:16;99662.38;;;32.19;36.72
58064;BME280;43851;55.856;37.186;2022-08-06T13:03:45;99661.53;;;32.06;36.53
58064;BME280;43851;55.856;37.186;2022-08-06T13:06:15;99658.53;;;31.99;36.99
58064;BME280;43851;55.856;37.186;2022-08-06T13:08:45;99651.31;;;31.82;36.49
58064;BME280;43851;55.856;37.186;2022-08-06T13:11:12;99642.63;;;31.80;36.94
58064;BME280;43851;55.856;37.186;2022-08-06T13:13:40;99639.69;;;31.85;37.14
58064;BME280;43851;55.856;37.186;2022-08-06T13:16:11;99641.47;;;31.81;37.73
58064;BME280;43851;55.856;37.186;2022-08-06T13:18:40;99645.34;;;31.80;37.31
58064;BME280;43851;55.856;37.186;2022-08-06T13:21:20;99640.72;;;32.05;37.19
58064;BME280;43851;55.856;37.186;2022-08-06T13:23:49;99637.44;;;32.24;36.03
58064;BME280;43851;55.856;37.186;2022-08-06T13:29:04;99632.09;;;32.15;36.15
58064;BME280;43851;55.856;37.186;2022-08-06T13:31:36;99627.72;;;32.14;35.90
58064;BME280;43851;55.856;37.186;2022-08-06T13:34:05;99630.66;;;31.97;36.41
58064;BME280;43851;55.856;37.186;2022-08-06T13:36:33;99616.25;;;31.88;36.82
58064;BME280;43851;55.856;37.186;2022-08-06T13:39:26;99611.75;;;31.71;36.88
58064;BME280;43851;55.856;37.186;2022-08-06T13:42:10;99609.97;;;31.87;37.13
58064;BME280;43851;55.856;37.186;2022-08-06T13:44:46;99597.41;;;31.86;37.35
58064;BME280;43851;55.856;37.186;2022-08-06T13:47:13;99599.47;;;31.89;37.36
58064;BME280;43851;55.856;37.186;2022-08-06T13:49:43;99598.06;;;31.71;37.07
58064;BME280;43851;55.856;37.186;2022-08-06T13:52:10;99600.13;;;31.74;36.49
58064;BME280;43851;55.856;37.186;2022-08-06T13:54:36;99593.16;;;31.76;37.67
58064;BME280;43851;55.856;37.186;2022-08-06T13:57:02;99596.66;;;31.64;37.04
58064;BME280;43851;55.856;37.186;2022-08-06T13:59:30;99598.06;;;31.58;37.37
58064;BME280;43851;55.856;37.186;2022-08-06T14:01:58;99610.13;;;31.57;37.23
58064;BME280;43851;55.856;37.186;2022-08-06T14:04:25;99602.09;;;31.52;37.30